Time;durP1;ratioP1;P1;durP2;ratioP2;P2;SDS_P1;SDS_P2;PMS_P1;PMS_P2;Temp;Humidity;BMP_temperature;BMP_pressure;BME280_temperature;BME280_humidity;BME280_pressure;Samples;Min_cycle;Max_cycle;Signal;HPM_P1;HPM_P2
2023/03/17 00:01:50;;;;;;;7.40;3.60;;;2.50;66.30;;;2.48;60.07;97944.56;5092031;28;20976;-71
2023/03/17 00:04:18;;;;;;;4.07;3.40;;;2.60;65.80;;;2.35;59.75;97924.56;5085238;28;20470;-72
2023/03/17 00:06:46;;;;;;;4.20;3.13;;;2.50;65.60;;;2.38;59.81;97942.88;5087040;28;20451;-71
2023/03/17 00:09:15;;;;;;;3.43;3.13;;;2.50;65.70;;;2.44;59.41;97928.06;5093597;28;20455;-72
2023/03/17 00:11:43;;;;;;;5.40;2.93;;;2.50;65.30;;;2.47;59.21;97935.72;5105516;28;20449;-72
2023/03/17 00:14:10;;;;;;;4.40;2.83;;;2.50;65.00;;;1.94;59.29;97857.84;5100123;28;20455;-73
2023/03/17 00:16:41;;;;;;;4.80;3.77;;;2.50;65.30;;;2.44;59.67;97932.56;5089144;28;20460;-71
2023/03/17 00:19:15;;;;;;;3.17;2.60;;;2.40;65.10;;;2.53;59.08;97932.41;5094634;28;20455;-72
2023/03/17 00:21:44;;;;;;;3.20;2.90;;;2.50;64.90;;;2.10;59.32;97862.38;5106855;27;20569;-71
2023/03/17 00:24:12;;;;;;;7.07;3.13;;;2.50;64.80;;;2.52;59.11;97932.56;5099783;28;20448;-72
2023/03/17 00:26:40;;;;;;;7.80;2.63;;;2.60;64.50;;;2.57;58.21;97934.75;5103443;27;20449;-71
2023/03/17 00:29:07;;;;;;;4.57;2.90;;;2.70;64.20;;;2.63;58.22;97915.38;5092653;28;20526;-72
2023/03/17 00:31:34;;;;;;;3.80;2.60;;;2.80;63.80;;;2.52;58.02;97904.06;5125145;27;20435;-71
2023/03/17 00:34:02;;;;;;;3.40;2.83;;;2.80;63.50;;;2.43;58.37;97915.72;5102454;27;20446;-71
2023/03/17 00:36:33;;;;;;;2.83;2.50;;;2.70;63.40;;;2.59;58.15;97922.06;5086141;28;20969;-72
2023/03/17 00:39:00;;;;;;;3.87;2.93;;;2.80;63.10;;;2.66;58.25;97928.41;5089064;28;20466;-71
2023/03/17 00:41:28;;;;;;;3.97;3.10;;;2.80;62.80;;;2.58;57.76;97902.56;5094213;28;20583;-70
2023/03/17 00:43:56;;;;;;;3.07;2.67;;;2.80;62.90;;;2.60;57.92;97919.25;5111071;27;20820;-70
2023/03/17 00:46:29;;;;;;;4.00;2.93;;;2.70;62.70;;;2.64;58.01;97906.38;5086542;28;20462;-71
2023/03/17 00:48:57;;;;;;;3.70;2.37;;;2.70;63.00;;;2.62;57.67;97908.38;5094104;28;20482;-71
2023/03/17 00:51:24;;;;;;;3.10;2.47;;;2.60;62.60;;;2.73;57.47;97899.22;5098890;28;20912;-70
2023/03/17 00:53:53;;;;;;;4.73;2.27;;;2.80;62.40;;;2.81;56.51;97894.72;5112068;27;20463;-70
2023/03/17 00:56:22;;;;;;;2.63;2.43;;;2.90;61.90;;;2.89;56.92;97887.69;5096793;28;20459;-69
2023/03/17 00:58:49;;;;;;;4.60;2.80;;;3.00;61.90;;;2.95;56.45;97881.66;5121689;28;20892;-70
2023/03/17 01:01:17;;;;;;;4.30;2.60;;;3.00;61.70;;;2.97;56.11;97879.69;5100200;28;20881;-72
2023/03/17 01:03:44;;;;;;;3.43;2.23;;;3.00;61.20;;;2.92;56.11;97887.34;5088882;28;20456;-72
2023/03/17 01:06:14;;;;;;;3.40;2.20;;;3.00;61.30;;;2.94;56.18;97869.31;5085039;28;20949;-70
2023/03/17 01:08:43;;;;;;;2.30;2.10;;;3.00;61.10;;;3.04;56.45;97883.31;5075725;28;20538;-69
2023/03/17 01:11:17;;;;;;;3.10;2.80;;;3.10;60.90;;;3.10;55.75;97871.94;5098575;28;20517;-71
2023/03/17 01:13:45;;;;;;;3.63;2.63;;;3.10;60.50;;;2.96;55.44;97872.69;5102685;27;21079;-69
2023/03/17 01:16:13;;;;;;;2.77;2.20;;;3.20;60.10;;;2.99;55.81;97861.66;5089199;28;20998;-70
2023/03/17 01:18:40;;;;;;;3.57;2.77;;;3.20;60.00;;;3.03;55.47;97857.63;5088636;28;20477;-72
2023/03/17 01:21:08;;;;;;;5.03;2.50;;;3.20;59.90;;;2.98;55.89;97855.47;5092204;28;20471;-71
2023/03/17 01:23:36;;;;;;;4.27;2.93;;;3.20;59.60;;;2.96;56.09;97854.81;5094412;28;20955;-70
2023/03/17 01:26:03;;;;;;;4.30;2.20;;;3.20;59.80;;;3.02;55.31;97850.63;5100598;28;20791;-70
2023/03/17 01:28:32;;;;;;;4.20;2.70;;;3.20;59.30;;;2.98;55.14;97846.66;5098615;27;20959;-71
2023/03/17 01:30:59;;;;;;;4.00;2.40;;;3.20;59.30;;;3.10;55.22;97847.94;5105473;28;20455;-71
2023/03/17 01:33:26;;;;;;;2.80;2.53;;;3.20;59.30;;;3.00;55.40;97841.13;5114397;27;20467;-71
2023/03/17 01:35:54;;;;;;;4.60;3.10;;;3.10;59.30;;;2.99;55.25;97861.66;5091338;28;20456;-69
2023/03/17 01:38:22;;;;;;;5.10;2.40;;;3.10;59.10;;;2.98;55.15;97854.66;5095602;28;20528;-72
2023/03/17 01:40:52;;;;;;;5.00;3.10;;;3.00;59.30;;;2.97;55.18;97858.34;5090370;28;20453;-71
2023/03/17 01:43:22;;;;;;;2.90;2.27;;;3.00;59.50;;;2.88;56.06;97857.53;5085981;28;20459;-72
2023/03/17 01:46:20;;;;;;;3.33;2.47;;;2.90;59.50;;;2.82;55.84;97843.03;5072154;28;20479;-71
2023/03/17 01:48:58;;;;;;;2.90;2.63;;;2.90;59.60;;;2.80;55.44;97842.34;5090861;28;20620;-71
2023/03/17 01:51:33;;;;;;;4.70;2.60;;;2.90;59.80;;;2.43;55.70;97777.06;5096620;27;20444;-71
2023/03/17 01:54:05;;;;;;;3.43;2.63;;;2.90;59.40;;;2.81;55.85;97832.50;5084721;28;20536;-71
2023/03/17 01:56:34;;;;;;;4.67;2.53;;;2.90;59.50;;;2.79;55.34;97840.66;5098861;27;20457;-71
2023/03/17 01:59:05;;;;;;;3.10;2.60;;;2.80;59.50;;;2.74;55.87;97832.34;5082338;28;20462;-71
2023/03/17 02:01:38;;;;;;;5.70;2.60;;;2.80;59.40;;;2.65;56.01;97839.53;5086217;28;20459;-70
2023/03/17 02:04:07;;;;;;;3.30;2.73;;;2.70;59.40;;;2.51;56.35;97835.72;5078508;28;20463;-71
2023/03/17 02:06:35;;;;;;;6.50;2.43;;;2.60;59.70;;;2.51;56.68;97849.06;5091181;28;20453;-71
2023/03/17 02:09:02;;;;;;;3.17;2.50;;;2.50;60.00;;;2.60;56.12;97835.72;5073801;28;20463;-72
2023/03/17 02:11:30;;;;;;;2.93;2.40;;;2.60;60.00;;;2.70;56.15;97836.38;5093847;28;20927;-74
2023/03/17 02:13:58;;;;;;;3.03;2.70;;;2.60;59.90;;;2.75;56.06;97836.69;5086012;28;20448;-71
2023/03/17 02:16:25;;;;;;;2.70;2.20;;;2.70;59.90;;;2.74;55.96;97832.34;5079262;28;20483;-71
2023/03/17 02:18:54;;;;;;;3.00;2.63;;;2.70;59.80;;;2.62;56.22;97834.53;5116469;27;20464;-72
2023/03/17 02:21:41;;;;;;;3.00;2.40;;;2.60;59.80;;;1.96;56.97;97750.09;5110745;27;20462;-72
2023/03/17 02:24:17;;;;;;;3.90;2.50;;;2.50;60.20;;;2.44;56.60;97826.72;5086736;28;21229;-71
2023/03/17 02:26:45;;;;;;;5.10;2.33;;;2.40;60.50;;;2.60;56.49;97822.38;5096916;28;20449;-71
2023/03/17 02:29:13;;;;;;;4.33;2.70;;;2.50;60.50;;;2.62;56.68;97829.22;5119017;27;20490;-72
2023/03/17 02:31:40;;;;;;;3.67;2.83;;;2.50;60.60;;;2.68;56.14;97809.03;5097100;28;20452;-70
2023/03/17 02:34:08;;;;;;;2.93;2.10;;;2.60;60.30;;;2.75;55.82;97812.66;5101151;27;20452;-70
2023/03/17 02:36:36;;;;;;;4.23;2.40;;;2.70;60.00;;;2.77;55.96;97816.00;5082910;28;20470;-72
2023/03/17 02:39:05;;;;;;;3.13;2.50;;;2.80;59.80;;;2.69;56.41;97808.03;5088101;28;20476;-72
2023/03/17 02:41:33;;;;;;;5.43;2.50;;;2.80;59.90;;;2.72;56.04;97807.69;5090059;28;20480;-72
2023/03/17 02:44:01;;;;;;;2.63;2.43;;;2.80;59.50;;;2.75;55.66;97810.00;5088562;28;20446;-72
2023/03/17 02:46:29;;;;;;;4.80;2.53;;;2.90;59.30;;;2.80;55.85;97802.31;5104823;28;20454;-71
2023/03/17 02:48:56;;;;;;;4.50;2.63;;;2.80;59.30;;;2.73;55.76;97801.34;5100044;28;21140;-72
2023/03/17 02:51:23;;;;;;;3.00;2.53;;;2.80;59.20;;;2.78;55.80;97800.81;5102377;28;20435;-70
2023/03/17 02:53:52;;;;;;;3.33;2.70;;;2.80;59.10;;;2.72;55.53;97805.00;5102842;28;20988;-72
2023/03/17 02:56:20;;;;;;;3.40;2.83;;;2.70;59.20;;;2.75;55.26;97804.66;5090341;28;20494;-71
2023/03/17 02:58:47;;;;;;;3.43;2.00;;;2.80;59.00;;;2.81;55.05;97806.66;5088936;28;20971;-72
2023/03/17 03:01:15;;;;;;;2.70;2.50;;;2.80;59.00;;;2.74;55.16;97805.66;5084911;28;20459;-70
2023/03/17 03:03:42;;;;;;;3.57;2.93;;;2.80;58.90;;;2.76;55.24;97803.66;5099205;28;20473;-70
2023/03/17 03:06:10;;;;;;;3.40;2.33;;;2.80;59.00;;;2.83;54.95;97810.00;5085138;28;20512;-70
2023/03/17 03:08:37;;;;;;;4.60;2.53;;;2.90;58.90;;;2.37;54.95;97738.56;5088390;28;21094;-72
2023/03/17 03:11:06;;;;;;;3.03;2.60;;;2.90;58.80;;;2.72;55.68;97802.34;5099152;28;20447;-72
2023/03/17 03:13:33;;;;;;;3.93;2.67;;;2.90;58.60;;;2.81;55.55;97800.47;5090456;28;20546;-71
2023/03/17 03:16:00;;;;;;;3.43;2.30;;;2.90;59.00;;;2.76;55.60;97792.97;5122540;27;20459;-71
2023/03/17 03:18:27;;;;;;;4.07;2.33;;;2.90;58.80;;;2.85;55.70;97811.66;5106369;27;20439;-72
2023/03/17 03:20:54;;;;;;;2.83;2.53;;;2.90;58.80;;;2.70;55.25;97809.69;5117018;28;20448;-70
2023/03/17 03:23:22;;;;;;;6.30;2.60;;;2.80;58.90;;;2.70;55.92;97815.03;5107545;28;20592;-71
2023/03/17 03:25:49;;;;;;;3.43;3.00;;;2.70;59.10;;;2.66;55.97;97803.84;5114714;28;20451;-72
2023/03/17 03:28:18;;;;;;;4.43;2.70;;;2.70;59.30;;;2.55;56.52;97807.72;5086281;28;20436;-71
2023/03/17 03:30:46;;;;;;;4.10;3.13;;;2.70;59.40;;;2.53;56.70;97803.53;5089466;28;20495;-71
2023/03/17 03:33:14;;;;;;;4.00;2.57;;;2.70;59.50;;;2.54;56.54;97800.72;5086785;28;20932;-70
2023/03/17 03:35:43;;;;;;;2.60;2.20;;;2.60;59.50;;;2.57;56.51;97801.38;5094072;28;21128;-71
2023/03/17 03:38:11;;;;;;;2.90;2.57;;;2.60;59.50;;;2.53;56.63;97793.72;5102313;27;20454;-73
2023/03/17 03:40:38;;;;;;;2.70;2.50;;;2.60;59.80;;;2.45;56.84;97801.72;5093524;28;20473;-73
2023/03/17 03:43:06;;;;;;;5.10;2.57;;;2.50;59.70;;;2.26;56.52;97766.41;5094876;28;20519;-71
2023/03/17 03:45:35;;;;;;;2.87;2.60;;;2.50;59.50;;;2.32;57.00;97801.41;5111447;27;20452;-69
2023/03/17 03:48:02;;;;;;;2.73;2.30;;;2.50;59.70;;;2.48;56.75;97795.22;5103392;28;20462;-72
2023/03/17 03:50:30;;;;;;;3.27;2.30;;;2.60;59.50;;;2.29;57.15;97796.41;5101598;28;20834;-72
2023/03/17 03:52:57;;;;;;;3.50;2.53;;;2.60;59.60;;;2.39;57.46;97781.88;5089100;28;20454;-71
2023/03/17 03:55:25;;;;;;;4.70;3.00;;;2.60;59.70;;;2.38;57.23;97784.75;5087930;28;20446;-72
2023/03/17 03:57:52;;;;;;;2.57;2.37;;;2.60;59.70;;;2.27;57.34;97777.91;5077435;28;20463;-72
2023/03/17 04:00:20;;;;;;;3.60;2.33;;;2.50;59.70;;;2.26;57.72;97782.41;5096566;28;20789;-73
2023/03/17 04:02:49;;;;;;;3.87;2.50;;;2.50;59.80;;;2.33;57.06;97793.25;5097357;28;20531;-72
2023/03/17 04:05:18;;;;;;;4.23;3.13;;;2.50;59.70;;;2.34;57.39;97796.72;5085341;28;20491;-71
2023/03/17 04:07:46;;;;;;;3.70;2.60;;;2.40;60.00;;;2.33;57.18;97800.38;5086225;28;20553;-72
2023/03/17 04:10:15;;;;;;;4.33;2.90;;;2.40;60.30;;;2.38;57.15;97787.41;5103442;28;20443;-74
2023/03/17 04:12:44;;;;;;;4.20;2.50;;;2.40;60.30;;;2.34;57.38;97783.38;5097953;28;20460;-74
2023/03/17 04:15:16;;;;;;;6.17;3.00;;;2.30;60.50;;;2.37;57.68;97783.06;5099330;28;20446;-71
2023/03/17 04:17:44;;;;;;;3.73;2.70;;;2.40;60.60;;;2.31;57.66;97773.91;5090188;28;20539;-72
2023/03/17 04:20:15;;;;;;;2.80;2.60;;;2.40;60.50;;;2.23;57.61;97773.91;5100317;28;20782;-71
2023/03/17 04:22:43;;;;;;;5.17;3.27;;;2.40;60.50;;;2.17;57.54;97777.25;5090177;28;20554;-70
2023/03/17 04:25:13;;;;;;;6.63;3.10;;;2.40;60.30;;;2.24;57.50;97773.75;5098165;28;20457;-70
2023/03/17 04:27:41;;;;;;;5.00;2.60;;;2.40;60.30;;;2.26;57.53;97776.22;5101923;28;21297;-72
2023/03/17 04:30:12;;;;;;;7.20;2.33;;;2.30;60.30;;;2.29;57.48;97775.06;5122085;27;20449;-70
2023/03/17 04:32:40;;;;;;;9.57;3.87;;;2.40;60.30;;;2.19;57.83;97770.75;5092356;28;20954;-71
2023/03/17 04:35:13;;;;;;;4.60;2.93;;;2.40;60.40;;;2.15;57.83;97766.75;5097554;27;20562;-70
2023/03/17 04:37:40;;;;;;;5.50;3.00;;;2.20;60.70;;;2.11;57.84;97757.44;5113515;27;20444;-71
2023/03/17 04:40:12;;;;;;;3.73;2.67;;;2.30;60.80;;;2.11;58.23;97760.09;5092427;28;20446;-70
2023/03/17 04:42:40;;;;;;;2.80;2.50;;;2.40;60.80;;;2.06;58.68;97754.44;5085735;28;20581;-70
2023/03/17 04:45:10;;;;;;;3.73;2.57;;;2.30;60.90;;;2.15;58.58;97760.59;5099423;27;20469;-70
2023/03/17 04:47:39;;;;;;;5.43;3.00;;;2.40;61.10;;;2.23;58.54;97761.41;5091326;28;20476;-72
2023/03/17 04:50:08;;;;;;;3.20;2.60;;;2.40;61.10;;;2.23;58.29;97753.44;5084540;28;20456;-70
2023/03/17 04:52:36;;;;;;;6.47;4.17;;;2.40;61.20;;;2.15;58.98;97758.75;5116683;27;20459;-71
2023/03/17 04:55:04;;;;;;;3.83;2.93;;;2.40;61.40;;;2.10;59.03;97753.09;5085390;28;20459;-70
2023/03/17 04:57:31;;;;;;;3.03;2.57;;;2.40;61.40;;;2.12;58.86;97754.59;5079618;28;20792;-70
2023/03/17 04:59:58;;;;;;;3.50;2.67;;;2.40;61.20;;;2.11;58.67;97755.59;5093834;28;20482;-70
2023/03/17 05:02:27;;;;;;;5.10;3.03;;;2.30;61.40;;;2.08;58.77;97768.44;5083176;28;20464;-71
2023/03/17 05:04:54;;;;;;;3.63;2.70;;;2.30;61.40;;;2.07;58.72;97758.78;5079136;28;20578;-71
2023/03/17 05:07:22;;;;;;;5.17;2.63;;;2.30;61.50;;;2.10;58.82;97772.56;5126070;27;20445;-71
2023/03/17 05:09:50;;;;;;;4.13;2.60;;;2.30;61.50;;;2.16;58.56;97771.06;5087701;28;20475;-71
2023/03/17 05:12:20;;;;;;;3.47;2.87;;;2.30;61.40;;;2.02;59.11;97779.75;5086658;28;20451;-70
2023/03/17 05:14:47;;;;;;;7.60;3.10;;;2.20;61.80;;;2.17;58.86;97774.59;5080804;28;20453;-71
2023/03/17 05:17:15;;;;;;;3.20;2.43;;;2.20;62.00;;;2.20;58.29;97767.09;5110612;27;20452;-71
2023/03/17 05:19:42;;;;;;;3.70;2.87;;;2.30;61.70;;;2.22;58.23;97759.75;5094185;28;20455;-70
2023/03/17 05:22:11;;;;;;;3.93;2.47;;;2.30;61.20;;;2.09;58.88;97752.25;5092586;28;20786;-71
2023/03/17 05:24:38;;;;;;;4.23;3.03;;;2.30;61.30;;;2.14;58.35;97754.44;5079507;28;20540;-71
2023/03/17 05:27:07;;;;;;;3.20;2.80;;;2.30;61.40;;;2.03;58.46;97757.41;5108614;27;20455;-70
2023/03/17 05:29:34;;;;;;;3.40;2.50;;;2.20;61.50;;;1.85;59.17;97753.09;5082888;28;20931;-72
2023/03/17 05:32:01;;;;;;;3.83;2.97;;;2.20;61.50;;;1.75;59.31;97752.44;5093444;28;20451;-70
2023/03/17 05:34:28;;;;;;;3.77;2.80;;;2.10;61.30;;;1.90;58.81;97756.13;5083651;28;21001;-70
2023/03/17 05:36:56;;;;;;;5.47;3.07;;;2.10;61.40;;;1.81;58.59;97747.25;5100799;27;20450;-69
2023/03/17 05:39:23;;;;;;;2.77;2.57;;;2.20;61.30;;;1.96;58.58;97751.94;5087779;27;20565;-70
2023/03/17 05:41:51;;;;;;;3.80;2.33;;;2.10;61.30;;;1.92;58.44;97759.44;5101408;28;20512;-71
2023/03/17 05:44:20;;;;;;;6.23;2.60;;;2.00;61.50;;;1.85;59.38;97769.09;5101017;28;20455;-72
2023/03/17 05:46:47;;;;;;;5.27;3.20;;;2.10;61.60;;;1.85;59.18;97758.44;5133063;27;20430;-71
2023/03/17 05:49:14;;;;;;;3.90;3.20;;;2.10;61.70;;;1.67;59.25;97758.59;5105611;28;20513;-76
2023/03/17 05:51:43;;;;;;;6.63;3.47;;;2.10;61.70;;;1.90;59.22;97777.44;5099919;28;20448;-76
2023/03/17 05:54:11;;;;;;;7.10;3.90;;;2.20;61.90;;;2.04;59.37;97770.59;5094144;28;20458;-76
2023/03/17 05:56:40;;;;;;;5.77;4.17;;;2.10;61.90;;;1.94;59.54;97759.25;5096517;28;20466;-84
2023/03/17 05:59:07;;;;;;;7.50;3.73;;;2.10;62.20;;;1.43;59.81;97667.03;5090758;28;20508;-77
2023/03/17 06:01:37;;;;;;;4.00;3.60;;;2.20;62.90;;;2.10;59.48;97761.09;5091163;28;20942;-81
2023/03/17 06:04:04;;;;;;;5.87;3.70;;;2.20;62.90;;;2.12;59.39;97751.94;5123614;27;20475;-76
2023/03/17 06:06:31;;;;;;;6.77;3.53;;;2.20;62.80;;;2.13;59.52;97758.09;5091643;28;20455;-80
2023/03/17 06:08:58;;;;;;;4.40;3.60;;;2.20;63.00;;;2.11;59.83;97750.25;5100744;27;20542;-80
2023/03/17 06:11:26;;;;;;;7.67;3.50;;;2.20;63.30;;;2.17;59.65;97762.06;5082599;28;20455;-79
2023/03/17 06:13:53;;;;;;;5.67;4.33;;;2.30;63.10;;;2.29;59.43;97754.59;5089654;28;20451;-74
2023/03/17 06:16:21;;;;;;;11.33;3.80;;;2.40;63.20;;;2.36;59.35;97760.91;5087740;28;20547;-74
2023/03/17 06:18:49;;;;;;;4.63;3.50;;;2.50;62.80;;;2.36;59.26;97741.41;5095637;28;20784;-75
2023/03/17 06:21:16;;;;;;;3.57;3.27;;;2.50;62.70;;;2.49;59.10;97751.53;5092531;28;20508;-79
2023/03/17 06:23:44;;;;;;;7.07;4.10;;;2.50;62.60;;;2.39;58.74;97731.22;5102397;28;20475;-77
2023/03/17 06:26:11;;;;;;;5.57;4.10;;;2.60;62.30;;;2.58;58.83;97728.34;5084060;27;21239;-70
2023/03/17 06:28:38;;;;;;;6.60;3.80;;;2.70;62.50;;;2.75;58.33;97727.28;5089659;28;20453;-70
2023/03/17 06:31:07;;;;;;;5.50;3.90;;;2.80;62.10;;;2.91;57.94;97730.88;5091238;28;20503;-71
2023/03/17 06:33:35;;;;;;;14.90;4.33;;;2.90;62.10;;;3.09;56.83;97734.13;5091798;28;20451;-71
2023/03/17 06:36:05;;;;;;;9.30;3.80;;;3.00;61.90;;;3.11;56.83;97731.31;5081682;28;20529;-71
2023/03/17 06:38:32;;;;;;;10.50;4.40;;;3.10;61.40;;;3.04;56.61;97733.84;5089042;28;20455;-70
2023/03/17 06:40:59;;;;;;;5.17;3.83;;;3.20;61.00;;;3.23;56.22;97726.41;5103901;28;20459;-71
2023/03/17 06:43:27;;;;;;;9.13;3.70;;;3.30;60.80;;;3.43;57.27;97723.28;5090773;28;20478;-72
2023/03/17 06:45:54;;;;;;;6.37;3.40;;;3.50;62.50;;;3.67;56.47;97731.13;5116355;27;20458;-70
2023/03/17 06:48:22;;;;;;;8.07;4.37;;;3.70;62.30;;;3.79;55.20;97733.38;5091002;28;20535;-75
2023/03/17 06:50:50;;;;;;;4.93;4.30;;;3.80;59.90;;;3.93;54.02;97740.63;5101809;28;20445;-69
2023/03/17 06:53:18;;;;;;;8.63;3.80;;;3.80;59.50;;;3.91;54.03;97748.00;5101085;28;20472;-67
2023/03/17 06:55:46;;;;;;;5.33;4.00;;;3.90;59.00;;;3.96;53.43;97745.59;5089722;28;21029;-68
2023/03/17 06:58:14;;;;;;;5.20;3.20;;;3.90;58.80;;;3.89;53.42;97755.38;5082811;28;20546;-69
2023/03/17 07:00:44;;;;;;;7.00;3.47;;;4.00;58.50;;;4.01;53.44;97760.25;5083228;28;20451;-68
2023/03/17 07:03:11;;;;;;;4.70;3.07;;;4.00;58.40;;;3.72;54.14;97761.84;5106500;27;20505;-69
2023/03/17 07:05:39;;;;;;;6.37;3.00;;;3.90;58.30;;;4.05;53.69;97773.09;5075519;28;20469;-67
2023/03/17 07:08:06;;;;;;;6.73;3.50;;;4.00;58.30;;;3.94;53.70;97769.00;5082967;28;20493;-68
2023/03/17 07:10:36;;;;;;;5.77;3.20;;;4.10;57.80;;;4.00;52.69;97737.22;5104590;27;21275;-68
2023/03/17 07:13:04;;;;;;;5.33;3.23;;;4.20;57.50;;;4.39;52.84;97776.31;5082415;28;20457;-69
2023/03/17 07:15:34;;;;;;;8.60;5.00;;;4.30;57.60;;;4.48;52.25;97785.94;5080466;28;22023;-68
2023/03/17 07:18:02;;;;;;;19.20;5.03;;;4.40;57.70;;;4.53;52.72;97782.72;5106519;27;20541;-68
2023/03/17 07:20:29;;;;;;;9.53;4.00;;;4.40;57.60;;;4.58;51.67;97779.50;5088486;28;20525;-69
2023/03/17 07:22:57;;;;;;;5.10;3.60;;;4.50;57.10;;;4.50;51.84;97777.72;5068250;28;20496;-68
2023/03/17 07:25:27;;;;;;;5.67;3.73;;;4.50;56.80;;;4.57;51.73;97773.31;5077875;28;20452;-70
2023/03/17 07:27:55;;;;;;;5.47;3.27;;;4.60;56.40;;;4.51;51.00;97774.03;5082424;28;20606;-71
2023/03/17 07:30:23;;;;;;;6.27;4.37;;;4.70;56.10;;;4.52;51.13;97763.16;5080642;28;20460;-68
2023/03/17 07:32:50;;;;;;;5.10;3.57;;;4.70;55.90;;;4.60;51.05;97764.91;5071846;28;20459;-67
2023/03/17 07:35:18;;;;;;;9.50;4.40;;;4.80;55.70;;;4.99;50.45;97749.59;5088537;28;20440;-69
2023/03/17 07:37:46;;;;;;;7.60;4.67;;;4.90;55.80;;;4.82;50.41;97749.78;5082911;28;20943;-69
2023/03/17 07:40:13;;;;;;;9.73;4.73;;;5.10;55.40;;;4.75;51.32;97753.41;5091633;28;20478;-68
2023/03/17 07:42:41;;;;;;;6.20;4.80;;;5.00;55.50;;;4.87;51.21;97743.03;5080463;28;20459;-68
2023/03/17 07:45:10;;;;;;;7.40;4.73;;;5.10;55.60;;;4.79;50.85;97741.28;5092821;27;20556;-68
2023/03/17 07:47:38;;;;;;;9.80;5.27;;;5.20;55.10;;;5.19;51.74;97738.28;5082645;28;20486;-69
2023/03/17 07:50:06;;;;;;;9.37;5.20;;;5.30;56.10;;;5.63;51.90;97734.66;5081691;28;20453;-69
2023/03/17 07:52:34;;;;;;;6.93;4.80;;;5.50;57.40;;;5.77;49.40;97735.63;5088488;28;20456;-69
2023/03/17 07:55:01;;;;;;;6.30;4.23;;;5.70;55.50;;;6.18;52.45;97742.22;5080169;28;20952;-70
2023/03/17 07:57:28;;;;;;;6.93;4.70;;;6.00;57.20;;;6.19;49.26;97738.50;5070943;28;20449;-68
2023/03/17 07:59:56;;;;;;;8.90;5.40;;;6.20;55.00;;;6.52;50.75;97732.56;5102780;27;20937;-68
2023/03/17 08:02:25;;;;;;;4.70;4.10;;;6.40;56.30;;;6.55;48.39;97736.72;5087780;28;20535;-68
2023/03/17 08:04:52;;;;;;;4.70;4.27;;;6.70;54.60;;;6.52;48.10;97729.88;5098697;28;20829;-72
2023/03/17 08:07:20;;;;;;;6.83;3.90;;;6.70;53.70;;;6.66;47.93;97716.53;5083274;28;20522;-70
2023/03/17 08:09:47;;;;;;;7.27;4.67;;;6.80;53.40;;;6.73;46.83;97713.88;5116772;27;20452;-68
2023/03/17 08:12:15;;;;;;;7.40;4.63;;;6.90;52.50;;;6.92;46.78;97709.66;5095243;28;20449;-65
2023/03/17 08:14:42;;;;;;;6.10;4.00;;;7.10;52.30;;;7.11;45.60;97708.06;5115922;27;20537;-68
2023/03/17 08:17:10;;;;;;;4.20;3.60;;;7.30;52.00;;;7.50;45.51;97705.69;5078597;28;20855;-70
2023/03/17 08:19:39;;;;;;;6.17;4.10;;;7.60;52.00;;;7.54;44.39;97706.97;5078601;28;20473;-70
2023/03/17 08:22:07;;;;;;;5.33;3.73;;;7.70;50.70;;;7.55;44.50;97707.78;5081254;28;20851;-69
2023/03/17 08:24:35;;;;;;;4.33;3.37;;;7.80;50.20;;;7.74;43.86;97700.78;5086026;28;20473;-70
2023/03/17 08:27:03;;;;;;;4.10;3.70;;;7.90;50.00;;;7.75;44.28;97697.06;5093795;28;20562;-68
2023/03/17 08:29:31;;;;;;;14.77;3.90;;;7.90;49.90;;;7.87;43.98;97705.34;5091150;28;20456;-70
2023/03/17 08:31:58;;;;;;;3.90;3.27;;;8.00;49.70;;;7.99;43.67;97697.50;5089920;28;20439;-70
2023/03/17 08:34:26;;;;;;;4.23;3.30;;;8.10;49.40;;;8.18;43.26;97690.44;5126007;27;20466;-70
2023/03/17 08:36:55;;;;;;;4.17;3.40;;;8.30;49.30;;;7.99;43.11;97702.88;5088905;28;20497;-69
2023/03/17 08:39:23;;;;;;;2.80;2.47;;;8.30;48.90;;;7.99;43.60;97687.56;5091701;28;21230;-70
2023/03/17 08:41:50;;;;;;;5.13;2.77;;;8.30;49.10;;;8.19;43.21;97702.88;5081365;28;20596;-69
2023/03/17 08:44:18;;;;;;;11.07;3.83;;;8.30;49.00;;;8.30;43.19;97685.28;5096119;27;20534;-70
2023/03/17 08:46:46;;;;;;;5.27;2.80;;;8.50;48.90;;;8.39;42.89;97692.06;5081098;28;20452;-68
2023/03/17 08:49:13;;;;;;;5.27;3.40;;;8.60;48.70;;;8.64;42.18;97696.84;5091675;27;20680;-67
2023/03/17 08:51:40;;;;;;;6.03;3.20;;;8.70;48.70;;;8.87;41.74;97688.28;5076810;28;20466;-69
2023/03/17 08:54:09;;;;;;;3.40;2.80;;;8.90;48.60;;;9.11;42.32;97682.38;5097701;27;20469;-71
2023/03/17 08:56:37;;;;;;;3.10;2.80;;;9.10;48.50;;;9.15;41.51;97672.81;5089967;28;20453;-67
2023/03/17 08:59:06;;;;;;;4.33;3.03;;;9.30;48.30;;;9.54;42.09;97681.75;5089226;28;20442;-69
2023/03/17 09:01:34;;;;;;;6.80;3.60;;;9.40;48.40;;;9.59;41.19;97673.00;5069255;28;20457;-71
2023/03/17 09:04:03;;;;;;;5.10;2.47;;;9.60;48.20;;;9.71;41.08;97681.22;5079387;28;20484;-70
2023/03/17 09:06:31;;;;;;;2.83;1.90;;;9.70;47.90;;;9.58;41.20;97682.97;5088360;28;20448;-72
2023/03/17 09:09:00;;;;;;;2.50;1.73;;;9.80;47.60;;;9.50;40.63;97642.78;5080669;28;20463;-72
2023/03/17 09:11:32;;;;;;;4.07;2.53;;;9.80;47.40;;;9.81;41.03;97680.72;5081423;28;20455;-74
2023/03/17 09:14:00;;;;;;;3.60;2.03;;;9.90;47.50;;;10.07;40.55;97690.50;5081319;28;20454;-71
2023/03/17 09:16:32;;;;;;;3.40;2.17;;;10.00;46.20;;;10.09;40.67;97679.47;5082346;28;20451;-74
2023/03/17 09:19:00;;;;;;;2.20;1.90;;;10.10;46.20;;;9.68;39.83;97611.53;5106663;28;20440;-73
2023/03/17 09:21:27;;;;;;;6.23;2.57;;;10.20;45.80;;;10.25;40.01;97670.81;5079627;28;20471;-76
2023/03/17 09:23:55;;;;;;;3.50;1.60;;;10.30;45.60;;;10.30;39.42;97670.16;5088419;28;20478;-71
2023/03/17 09:26:23;;;;;;;4.03;1.87;;;10.40;45.50;;;10.24;39.13;97669.19;5088085;28;20469;-72
2023/03/17 09:28:53;;;;;;;4.70;2.40;;;10.40;45.30;;;10.61;38.78;97663.03;5081017;28;20468;-76
2023/03/17 09:31:20;;;;;;;2.00;1.80;;;10.50;45.30;;;10.84;38.89;97666.91;5075276;28;20561;-70
2023/03/17 09:33:48;;;;;;;5.53;1.80;;;10.80;45.30;;;10.91;38.84;97667.69;5080567;28;20471;-70
2023/03/17 09:36:15;;;;;;;4.93;1.80;;;10.90;45.20;;;10.86;38.89;97667.53;5084892;28;20472;-70
2023/03/17 09:38:42;;;;;;;2.90;2.00;;;10.90;44.70;;;10.99;38.58;97670.06;5093704;28;20538;-73
2023/03/17 09:41:40;;;;;;;3.20;1.50;;;11.00;44.80;;;11.03;38.59;97665.88;5084962;28;20453;-68
2023/03/17 09:44:21;;;;;;;1.43;1.30;;;11.00;44.60;;;11.13;38.05;97664.50;5041696;28;20972;-72
2023/03/17 09:46:59;;;;;;;2.40;1.77;;;11.20;44.80;;;11.30;38.01;97660.13;5082114;28;20466;-73
2023/03/17 09:49:37;;;;;;;2.40;2.20;;;11.30;44.70;;;11.05;37.51;97660.22;5079754;28;21291;-70
2023/03/17 09:52:05;;;;;;;4.37;2.00;;;11.30;43.90;;;11.52;37.54;97659.59;5072604;28;20463;-71
2023/03/17 09:54:36;;;;;;;2.03;1.37;;;11.50;44.30;;;11.66;37.07;97656.72;5075703;28;20455;-72
2023/03/17 09:57:15;;;;;;;3.43;1.50;;;11.60;44.00;;;12.01;36.76;97651.41;5076759;28;20456;-74
2023/03/17 09:59:46;;;;;;;2.03;1.57;;;11.90;44.10;;;11.97;36.75;97658.28;5078919;28;20470;-71
2023/03/17 10:02:22;;;;;;;2.30;1.60;;;11.90;43.70;;;11.89;37.01;97662.16;5078803;28;20540;-69
2023/03/17 10:04:50;;;;;;;4.63;2.03;;;12.00;43.60;;;12.21;36.19;97649.38;5079092;28;20477;-69
2023/03/17 10:07:24;;;;;;;1.90;1.50;;;12.20;43.40;;;12.06;36.16;97645.28;5079825;28;20875;-71
2023/03/17 10:10:01;;;;;;;3.53;1.60;;;12.20;43.00;;;12.56;35.56;97652.09;5119164;27;20446;-71
2023/03/17 10:12:46;;;;;;;2.27;2.07;;;12.40;43.10;;;12.56;34.72;97648.56;5089581;27;20494;-71
2023/03/17 10:15:22;;;;;;;2.67;1.30;;;12.60;42.50;;;12.35;35.64;97637.25;5125231;27;20458;-69
2023/03/17 10:17:53;;;;;;;3.37;1.43;;;12.50;42.40;;;12.08;36.28;97645.88;5085001;28;20457;-70
2023/03/17 10:20:27;;;;;;;2.77;1.90;;;12.40;42.50;;;12.29;35.85;97640.94;5071525;28;20455;-70
2023/03/17 10:22:57;;;;;;;1.43;1.30;;;12.30;42.80;;;11.85;36.24;97598.72;5081735;28;20463;-74
2023/03/17 10:25:28;;;;;;;3.07;1.53;;;12.30;42.70;;;12.69;35.49;97634.78;5073993;28;20476;-70
2023/03/17 10:27:59;;;;;;;4.40;1.50;;;12.60;42.80;;;12.17;35.81;97614.66;5120945;27;20482;-71
2023/03/17 10:30:33;;;;;;;4.57;2.50;;;12.50;42.30;;;12.76;35.61;97626.50;5110301;27;20499;-69
2023/03/17 10:33:05;;;;;;;2.57;1.60;;;12.70;42.70;;;13.36;34.85;97650.72;5083397;28;20501;-72
2023/03/17 10:35:35;;;;;;;2.60;1.70;;;13.00;42.70;;;13.49;34.98;97647.72;5092303;28;20499;-72
2023/03/17 10:38:14;;;;;;;4.30;1.80;;;13.30;42.70;;;13.43;34.63;97632.41;5100258;27;20487;-74